sensor_id;sensor_type;location;lat;lon;timestamp;pressure;altitude;pressure_sealevel;temperature;humidity
14295;BME280;7231;59.370;18.016;2023-01-29T00:02:14;101025.63;;;0.84;100.00
14295;BME280;7231;59.370;18.016;2023-01-29T00:04:42;101030.78;;;0.84;100.00
14295;BME280;7231;59.370;18.016;2023-01-29T00:07:10;101029.88;;;0.84;100.00
14295;BME280;7231;59.370;18.016;2023-01-29T00:09:39;101013.97;;;0.78;100.00
14295;BME280;7231;59.370;18.016;2023-01-29T00:12:07;101025.84;;;0.87;100.00
14295;BME280;7231;59.370;18.016;2023-01-29T00:14:35;101022.34;;;0.87;100.00
14295;BME280;7231;59.370;18.016;2023-01-29T00:17:03;101000.19;;;0.77;100.00
14295;BME280;7231;59.370;18.016;2023-01-29T00:19:33;100946.22;;;0.44;100.00
14295;BME280;7231;59.370;18.016;2023-01-29T00:22:00;101006.03;;;0.75;100.00
14295;BME280;7231;59.370;18.016;2023-01-29T00:24:28;101019.78;;;0.87;100.00
14295;BME280;7231;59.370;18.016;2023-01-29T00:26:56;101019.78;;;0.87;100.00
14295;BME280;7231;59.370;18.016;2023-01-29T00:29:24;101017.31;;;0.88;100.00
14295;BME280;7231;59.370;18.016;2023-01-29T00:31:52;100999.28;;;0.77;100.00
14295;BME280;7231;59.370;18.016;2023-01-29T00:34:20;101024.03;;;0.86;100.00
14295;BME280;7231;59.370;18.016;2023-01-29T00:36:50;101024.84;;;0.85;100.00
14295;BME280;7231;59.370;18.016;2023-01-29T00:39:18;101027.41;;;0.85;100.00
14295;BME280;7231;59.370;18.016;2023-01-29T00:42:01;101001.53;;;0.72;100.00
14295;BME280;7231;59.370;18.016;2023-01-29T00:44:47;101024.84;;;0.85;100.00
14295;BME280;7231;59.370;18.016;2023-01-29T00:47:24;101025.72;;;0.86;100.00
14295;BME280;7231;59.370;18.016;2023-01-29T00:50:00;100906.06;;;0.22;100.00
14295;BME280;7231;59.370;18.016;2023-01-29T00:52:29;101006.91;;;0.75;100.00
14295;BME280;7231;59.370;18.016;2023-01-29T00:54:59;101034.59;;;0.89;100.00
14295;BME280;7231;59.370;18.016;2023-01-29T00:57:28;101010.81;;;0.82;100.00
14295;BME280;7231;59.370;18.016;2023-01-29T00:59:57;101009.81;;;0.80;100.00
14295;BME280;7231;59.370;18.016;2023-01-29T01:02:26;101018.00;;;0.86;100.00
14295;BME280;7231;59.370;18.016;2023-01-29T01:05:14;101007.56;;;0.84;100.00
14295;BME280;7231;59.370;18.016;2023-01-29T01:07:46;101017.09;;;0.85;100.00
14295;BME280;7231;59.370;18.016;2023-01-29T01:10:17;101010.13;;;0.84;100.00
14295;BME280;7231;59.370;18.016;2023-01-29T01:12:52;100983.28;;;0.69;100.00
14295;BME280;7231;59.370;18.016;2023-01-29T01:15:22;101017.78;;;0.83;100.00
14295;BME280;7231;59.370;18.016;2023-01-29T01:17:54;100949.44;;;0.53;100.00
14295;BME280;7231;59.370;18.016;2023-01-29T01:20:23;100995.69;;;0.75;100.00
14295;BME280;7231;59.370;18.016;2023-01-29T01:22:53;101005.66;;;0.82;100.00
14295;BME280;7231;59.370;18.016;2023-01-29T01:25:25;100991.75;;;0.80;100.00
14295;BME280;7231;59.370;18.016;2023-01-29T01:27:54;100946.97;;;0.54;100.00
14295;BME280;7231;59.370;18.016;2023-01-29T01:30:23;100989.97;;;0.79;100.00
14295;BME280;7231;59.370;18.016;2023-01-29T01:32:52;100989.19;;;0.80;100.00
14295;BME280;7231;59.370;18.016;2023-01-29T01:35:20;100980.53;;;0.79;100.00
14295;BME280;7231;59.370;18.016;2023-01-29T01:37:48;100976.16;;;0.78;100.00
14295;BME280;7231;59.370;18.016;2023-01-29T01:40:19;100973.47;;;0.77;100.00
14295;BME280;7231;59.370;18.016;2023-01-29T01:42:48;100965.63;;;0.75;100.00
14295;BME280;7231;59.370;18.016;2023-01-29T01:45:21;100977.53;;;0.73;100.00
14295;BME280;7231;59.370;18.016;2023-01-29T01:47:52;100975.75;;;0.72;100.00
14295;BME280;7231;59.370;18.016;2023-01-29T01:50:24;100922.66;;;0.51;100.00
14295;BME280;7231;59.370;18.016;2023-01-29T01:52:56;100912.50;;;0.41;100.00
14295;BME280;7231;59.370;18.016;2023-01-29T01:55:29;100962.72;;;0.71;100.00
14295;BME280;7231;59.370;18.016;2023-01-29T01:58:04;100944.47;;;0.68;100.00
14295;BME280;7231;59.370;18.016;2023-01-29T02:00:33;100909.06;;;0.53;100.00
14295;BME280;7231;59.370;18.016;2023-01-29T02:03:01;100931.25;;;0.63;100.00
14295;BME280;7231;59.370;18.016;2023-01-29T02:05:49;100931.94;;;0.60;100.00
14295;BME280;7231;59.370;18.016;2023-01-29T02:08:39;100924.06;;;0.59;100.00
14295;BME280;7231;59.370;18.016;2023-01-29T02:11:29;100906.19;;;0.49;100.00
14295;BME280;7231;59.370;18.016;2023-01-29T02:13:58;100911.75;;;0.55;100.00
14295;BME280;7231;59.370;18.016;2023-01-29T02:16:26;100910.88;;;0.54;100.00
14295;BME280;7231;59.370;18.016;2023-01-29T02:18:54;100916.81;;;0.53;100.00
14295;BME280;7231;59.370;18.016;2023-01-29T02:21:44;100906.38;;;0.52;100.00
14295;BME280;7231;59.370;18.016;2023-01-29T02:24:51;100904.59;;;0.51;100.00
14295;BME280;7231;59.370;18.016;2023-01-29T02:27:27;100899.22;;;0.48;100.00
14295;BME280;7231;59.370;18.016;2023-01-29T02:30:04;100905.28;;;0.48;100.00
14295;BME280;7231;59.370;18.016;2023-01-29T02:32:40;100896.66;;;0.48;100.00
14295;BME280;7231;59.370;18.016;2023-01-29T02:35:27;100810.00;;;0.00;100.00
14295;BME280;7231;59.370;18.016;2023-01-29T02:38:08;100821.59;;;0.07;100.00
14295;BME280;7231;59.370;18.016;2023-01-29T02:40:42;100867.22;;;0.32;100.00
14295;BME280;7231;59.370;18.016;2023-01-29T02:43:21;100880.16;;;0.46;100.00
14295;BME280;7231;59.370;18.016;2023-01-29T02:46:00;100841.31;;;0.31;100.00
14295;BME280;7231;59.370;18.016;2023-01-29T02:48:38;100842.00;;;0.28;100.00
14295;BME280;7231;59.370;18.016;2023-01-29T02:51:15;100742.88;;;-0.26;100.00
14295;BME280;7231;59.370;18.016;2023-01-29T02:53:54;100861.69;;;0.40;100.00
14295;BME280;7231;59.370;18.016;2023-01-29T02:56:34;100829.91;;;0.27;100.00
14295;BME280;7231;59.370;18.016;2023-01-29T02:59:09;100408.13;;;-2.14;100.00
14295;BME280;7231;59.370;18.016;2023-01-29T03:01:44;100829.31;;;0.31;100.00
14295;BME280;7231;59.370;18.016;2023-01-29T03:04:18;100850.84;;;0.32;100.00
14295;BME280;7231;59.370;18.016;2023-01-29T03:06:52;100849.06;;;0.31;100.00
14295;BME280;7231;59.370;18.016;2023-01-29T03:09:24;100853.31;;;0.30;100.00
14295;BME280;7231;59.370;18.016;2023-01-29T03:11:56;100823.13;;;0.16;100.00
14295;BME280;7231;59.370;18.016;2023-01-29T03:14:30;100829.28;;;0.18;100.00
14295;BME280;7231;59.370;18.016;2023-01-29T03:17:34;100839.13;;;0.24;100.00
14295;BME280;7231;59.370;18.016;2023-01-29T03:20:07;100821.00;;;0.11;100.00
14295;BME280;7231;59.370;18.016;2023-01-29T03:22:38;100843.16;;;0.20;100.00
14295;BME280;7231;59.370;18.016;2023-01-29T03:25:07;100843.28;;;0.22;100.00
14295;BME280;7231;59.370;18.016;2023-01-29T03:27:56;100764.03;;;-0.19;100.00
14295;BME280;7231;59.370;18.016;2023-01-29T03:30:46;100820.34;;;0.13;100.00
14295;BME280;7231;59.370;18.016;2023-01-29T03:33:39;100831.97;;;0.20;100.00
14295;BME280;7231;59.370;18.016;2023-01-29T03:36:13;100828.50;;;0.19;100.00
14295;BME280;7231;59.370;18.016;2023-01-29T03:38:43;100838.81;;;0.19;100.00
14295;BME280;7231;59.370;18.016;2023-01-29T03:41:19;100780.69;;;-0.14;100.00
14295;BME280;7231;59.370;18.016;2023-01-29T03:43:53;100823.31;;;0.19;100.00
14295;BME280;7231;59.370;18.016;2023-01-29T03:46:26;100818.97;;;0.18;100.00
14295;BME280;7231;59.370;18.016;2023-01-29T03:49:00;100823.13;;;0.16;100.00
14295;BME280;7231;59.370;18.016;2023-01-29T03:51:36;100819.66;;;0.16;100.00
14295;BME280;7231;59.370;18.016;2023-01-29T03:54:10;100819.66;;;0.16;100.00
14295;BME280;7231;59.370;18.016;2023-01-29T03:56:52;100812.81;;;0.16;100.00
14295;BME280;7231;59.370;18.016;2023-01-29T03:59:32;100810.13;;;0.15;100.00
14295;BME280;7231;59.370;18.016;2023-01-29T04:02:05;100786.88;;;0.02;100.00
14295;BME280;7231;59.370;18.016;2023-01-29T04:04:38;100807.44;;;0.13;100.00
14295;BME280;7231;59.370;18.016;2023-01-29T04:07:09;100802.28;;;0.13;100.00
14295;BME280;7231;59.370;18.016;2023-01-29T04:09:42;100798.91;;;0.14;100.00
14295;BME280;7231;59.370;18.016;2023-01-29T04:12:16;100799.91;;;0.16;100.00
14295;BME280;7231;59.370;18.016;2023-01-29T04:14:48;100806.06;;;0.18;100.00
14295;BME280;7231;59.370;18.016;2023-01-29T04:17:21;100751.19;;;-0.06;100.00
14295;BME280;7231;59.370;18.016;2023-01-29T04:19:52;100763.78;;;0.03;100.00
14295;BME280;7231;59.370;18.016;2023-01-29T04:22:24;100803.03;;;0.24;100.00
14295;BME280;7231;59.370;18.016;2023-01-29T04:24:54;100804.13;;;0.27;100.00
14295;BME280;7231;59.370;18.016;2023-01-29T04:27:34;100790.34;;;0.27;100.00
14295;BME280;7231;59.370;18.016;2023-01-29T04:30:17;100765.63;;;0.17;100.00
14295;BME280;7231;59.370;18.016;2023-01-29T04:32:56;100781.91;;;0.29;100.00
14295;BME280;7231;59.370;18.016;2023-01-29T04:35:31;100753.63;;;0.18;100.00
14295;BME280;7231;59.370;18.016;2023-01-29T04:38:09;100615.47;;;-0.56;100.00
14295;BME280;7231;59.370;18.016;2023-01-29T04:40:48;100772.91;;;0.36;100.00
14295;BME280;7231;59.370;18.016;2023-01-29T04:43:21;100760.13;;;0.38;100.00
14295;BME280;7231;59.370;18.016;2023-01-29T04:46:03;100734.59;;;0.29;100.00
14295;BME280;7231;59.370;18.016;2023-01-29T04:48:44;100749.09;;;0.40;100.00
14295;BME280;7231;59.370;18.016;2023-01-29T04:51:20;100736.59;;;0.33;100.00
14295;BME280;7231;59.370;18.016;2023-01-29T04:53:54;100738.69;;;0.39;100.00
14295;BME280;7231;59.370;18.016;2023-01-29T04:56:29;100730.94;;;0.39;100.00
14295;BME280;7231;59.370;18.016;2023-01-29T04:59:05;100734.31;;;0.38;100.00
14295;BME280;7231;59.370;18.016;2023-01-29T05:01:34;100724.78;;;0.37;100.00
14295;BME280;7231;59.370;18.016;2023-01-29T05:04:06;100714.47;;;0.37;100.00
14295;BME280;7231;59.370;18.016;2023-01-29T05:06:36;100696.03;;;0.30;100.00
14295;BME280;7231;59.370;18.016;2023-01-29T05:09:07;100709.44;;;0.38;100.00
14295;BME280;7231;59.370;18.016;2023-01-29T05:11:36;100693.16;;;0.39;100.00
14295;BME280;7231;59.370;18.016;2023-01-29T05:14:06;100688.91;;;0.40;100.00
14295;BME280;7231;59.370;18.016;2023-01-29T05:16:39;100686.41;;;0.41;100.00
14295;BME280;7231;59.370;18.016;2023-01-29T05:19:10;100654.56;;;0.27;100.00
14295;BME280;7231;59.370;18.016;2023-01-29T05:21:42;100670.94;;;0.41;100.00
14295;BME280;7231;59.370;18.016;2023-01-29T05:24:13;100656.25;;;0.40;100.00
14295;BME280;7231;59.370;18.016;2023-01-29T05:26:43;100640.28;;;0.32;100.00
14295;BME280;7231;59.370;18.016;2023-01-29T05:29:29;100639.09;;;0.41;100.00
14295;BME280;7231;59.370;18.016;2023-01-29T05:31:57;100637.31;;;0.40;100.00
14295;BME280;7231;59.370;18.016;2023-01-29T05:34:25;100636.53;;;0.41;100.00
14295;BME280;7231;59.370;18.016;2023-01-29T05:36:55;100617.47;;;0.39;100.00
14295;BME280;7231;59.370;18.016;2023-01-29T05:39:23;100620.06;;;0.39;100.00
14295;BME280;7231;59.370;18.016;2023-01-29T05:41:51;100616.88;;;0.43;100.00
14295;BME280;7231;59.370;18.016;2023-01-29T05:44:19;100605.16;;;0.35;100.00
14295;BME280;7231;59.370;18.016;2023-01-29T05:46:47;100613.31;;;0.41;100.00
14295;BME280;7231;59.370;18.016;2023-01-29T05:49:15;100593.66;;;0.29;100.00
14295;BME280;7231;59.370;18.016;2023-01-29T05:51:43;100618.47;;;0.41;100.00
14295;BME280;7231;59.370;18.016;2023-01-29T05:54:13;100571.94;;;0.26;100.00
14295;BME280;7231;59.370;18.016;2023-01-29T05:56:40;100570.47;;;0.29;100.00
14295;BME280;7231;59.370;18.016;2023-01-29T05:59:08;100567.88;;;0.29;100.00
14295;BME280;7231;59.370;18.016;2023-01-29T06:01:37;100602.09;;;0.40;100.00
14295;BME280;7231;59.370;18.016;2023-01-29T06:04:04;100576.81;;;0.35;100.00
14295;BME280;7231;59.370;18.016;2023-01-29T06:06:32;100578.78;;;0.39;100.00
14295;BME280;7231;59.370;18.016;2023-01-29T06:09:00;100581.47;;;0.40;100.00
14295;BME280;7231;59.370;18.016;2023-01-29T06:11:30;100583.16;;;0.40;100.00
14295;BME280;7231;59.370;18.016;2023-01-29T06:13:58;100558.06;;;0.24;100.00
14295;BME280;7231;59.370;18.016;2023-01-29T06:16:26;100571.94;;;0.39;100.00
14295;BME280;7231;59.370;18.016;2023-01-29T06:18:53;100591.78;;;0.40;100.00
14295;BME280;7231;59.370;18.016;2023-01-29T06:21:21;100582.25;;;0.39;100.00
14295;BME280;7231;59.370;18.016;2023-01-29T06:23:51;100582.75;;;0.33;100.00
14295;BME280;7231;59.370;18.016;2023-01-29T06:26:19;100608.06;;;0.39;100.00
14295;BME280;7231;59.370;18.016;2023-01-29T06:28:49;100607.16;;;0.39;100.00
14295;BME280;7231;59.370;18.016;2023-01-29T06:31:17;100601.22;;;0.40;100.00
14295;BME280;7231;59.370;18.016;2023-01-29T06:34:03;100594.47;;;0.42;100.00
14295;BME280;7231;59.370;18.016;2023-01-29T06:36:31;100595.25;;;0.41;100.00
14295;BME280;7231;59.370;18.016;2023-01-29T06:38:59;100583.25;;;0.41;100.00
14295;BME280;7231;59.370;18.016;2023-01-29T06:41:27;100579.88;;;0.42;100.00
14295;BME280;7231;59.370;18.016;2023-01-29T06:43:56;100534.38;;;0.16;100.00
14295;BME280;7231;59.370;18.016;2023-01-29T06:46:24;100577.41;;;0.44;100.00
14295;BME280;7231;59.370;18.016;2023-01-29T06:48:52;100534.78;;;0.22;100.00
14295;BME280;7231;59.370;18.016;2023-01-29T06:51:20;100569.56;;;0.42;100.00
14295;BME280;7231;59.370;18.016;2023-01-29T06:53:48;100564.41;;;0.42;100.00
14295;BME280;7231;59.370;18.016;2023-01-29T06:56:16;100554.00;;;0.41;100.00
14295;BME280;7231;59.370;18.016;2023-01-29T06:58:44;100536.25;;;0.32;100.00
14295;BME280;7231;59.370;18.016;2023-01-29T07:01:14;100520.56;;;0.29;100.00
14295;BME280;7231;59.370;18.016;2023-01-29T07:04:01;100535.75;;;0.38;100.00
14295;BME280;7231;59.370;18.016;2023-01-29T07:06:29;100526.03;;;0.33;100.00
14295;BME280;7231;59.370;18.016;2023-01-29T07:08:58;100496.50;;;0.15;100.00
14295;BME280;7231;59.370;18.016;2023-01-29T07:11:25;100527.63;;;0.31;100.00
14295;BME280;7231;59.370;18.016;2023-01-29T07:13:53;100504.44;;;0.18;100.00
14295;BME280;7231;59.370;18.016;2023-01-29T07:16:23;100521.47;;;0.29;100.00
14295;BME280;7231;59.370;18.016;2023-01-29T07:18:52;100519.69;;;0.28;100.00
14295;BME280;7231;59.370;18.016;2023-01-29T07:21:20;100505.09;;;0.29;100.00
14295;BME280;7231;59.370;18.016;2023-01-29T07:23:48;100503.41;;;0.29;100.00
14295;BME280;7231;59.370;18.016;2023-01-29T07:26:16;100507.78;;;0.30;100.00
14295;BME280;7231;59.370;18.016;2023-01-29T07:28:44;100417.47;;;-0.12;100.00
14295;BME280;7231;59.370;18.016;2023-01-29T07:31:12;100488.16;;;0.32;100.00
14295;BME280;7231;59.370;18.016;2023-01-29T07:33:43;100485.75;;;0.36;100.00
14295;BME280;7231;59.370;18.016;2023-01-29T07:36:12;100480.78;;;0.39;100.00
14295;BME280;7231;59.370;18.016;2023-01-29T07:38:40;100480.88;;;0.40;100.00
14295;BME280;7231;59.370;18.016;2023-01-29T07:41:08;100469.88;;;0.43;100.00
14295;BME280;7231;59.370;18.016;2023-01-29T07:43:36;100417.97;;;0.10;100.00
14295;BME280;7231;59.370;18.016;2023-01-29T07:46:04;100484.94;;;0.50;100.00
14295;BME280;7231;59.370;18.016;2023-01-29T07:48:32;100480.66;;;0.50;100.00
14295;BME280;7231;59.370;18.016;2023-01-29T07:51:01;100475.59;;;0.52;100.00
14295;BME280;7231;59.370;18.016;2023-01-29T07:53:29;100468.75;;;0.52;100.00
14295;BME280;7231;59.370;18.016;2023-01-29T07:55:58;100436.16;;;0.40;100.00
14295;BME280;7231;59.370;18.016;2023-01-29T07:58:26;100436.34;;;0.43;100.00
14295;BME280;7231;59.370;18.016;2023-01-29T08:00:54;100449.19;;;0.56;100.00
14295;BME280;7231;59.370;18.016;2023-01-29T08:03:22;100433.72;;;0.56;100.00
14295;BME280;7231;59.370;18.016;2023-01-29T08:05:50;100426.06;;;0.57;100.00
14295;BME280;7231;59.370;18.016;2023-01-29T08:08:19;100424.38;;;0.58;100.00
14295;BME280;7231;59.370;18.016;2023-01-29T08:10:47;100365.59;;;0.24;100.00
14295;BME280;7231;59.370;18.016;2023-01-29T08:13:15;100403.97;;;0.48;100.00
14295;BME280;7231;59.370;18.016;2023-01-29T08:15:43;100427.34;;;0.64;100.00
14295;BME280;7231;59.370;18.016;2023-01-29T08:18:12;100358.59;;;0.37;100.00
14295;BME280;7231;59.370;18.016;2023-01-29T08:20:40;100355.59;;;0.44;100.00
14295;BME280;7231;59.370;18.016;2023-01-29T08:23:12;100399.50;;;0.73;100.00
14295;BME280;7231;59.370;18.016;2023-01-29T08:25:41;100391.84;;;0.75;100.00
14295;BME280;7231;59.370;18.016;2023-01-29T08:28:10;100389.38;;;0.76;100.00
14295;BME280;7231;59.370;18.016;2023-01-29T08:30:38;100379.22;;;0.79;100.00
14295;BME280;7231;59.370;18.016;2023-01-29T08:33:06;100374.16;;;0.81;100.00
14295;BME280;7231;59.370;18.016;2023-01-29T08:35:34;100379.41;;;0.82;100.00
14295;BME280;7231;59.370;18.016;2023-01-29T08:38:03;100345.50;;;0.61;100.00
14295;BME280;7231;59.370;18.016;2023-01-29T08:40:33;100390.91;;;0.87;100.00
14295;BME280;7231;59.370;18.016;2023-01-29T08:43:03;100382.53;;;0.91;100.00
14295;BME280;7231;59.370;18.016;2023-01-29T08:45:35;100214.47;;;-0.03;100.00
14295;BME280;7231;59.370;18.016;2023-01-29T08:48:04;100311.41;;;0.52;100.00
14295;BME280;7231;59.370;18.016;2023-01-29T08:50:32;100368.47;;;1.01;100.00
14295;BME280;7231;59.370;18.016;2023-01-29T08:53:02;100356.63;;;1.05;100.00
14295;BME280;7231;59.370;18.016;2023-01-29T08:55:31;100354.31;;;1.09;100.00
14295;BME280;7231;59.370;18.016;2023-01-29T08:57:58;100356.19;;;1.12;100.00
14295;BME280;7231;59.370;18.016;2023-01-29T09:00:28;100349.41;;;1.14;100.00
14295;BME280;7231;59.370;18.016;2023-01-29T09:02:56;100332.16;;;1.13;100.00
14295;BME280;7231;59.370;18.016;2023-01-29T09:05:25;100286.78;;;0.87;100.00
14295;BME280;7231;59.370;18.016;2023-01-29T09:07:53;100353.50;;;1.25;100.00
14295;BME280;7231;59.370;18.016;2023-01-29T09:10:21;100357.06;;;1.27;100.00
14295;BME280;7231;59.370;18.016;2023-01-29T09:12:49;100348.50;;;1.28;100.00
14295;BME280;7231;59.370;18.016;2023-01-29T09:15:17;100293.88;;;1.06;100.00
14295;BME280;7231;59.370;18.016;2023-01-29T09:17:46;100322.84;;;1.31;100.00
14295;BME280;7231;59.370;18.016;2023-01-29T09:20:16;100319.56;;;1.34;100.00
14295;BME280;7231;59.370;18.016;2023-01-29T09:22:45;100313.97;;;1.26;100.00
14295;BME280;7231;59.370;18.016;2023-01-29T09:25:13;100331.59;;;1.33;100.00
14295;BME280;7231;59.370;18.016;2023-01-29T09:27:41;100348.84;;;1.34;100.00
14295;BME280;7231;59.370;18.016;2023-01-29T09:30:10;100350.72;;;1.37;100.00
14295;BME280;7231;59.370;18.016;2023-01-29T09:32:38;100345.72;;;1.40;100.00
14295;BME280;7231;59.370;18.016;2023-01-29T09:35:21;100331.28;;;1.43;100.00
14295;BME280;7231;59.370;18.016;2023-01-29T09:37:49;100321.94;;;1.45;100.00
14295;BME280;7231;59.370;18.016;2023-01-29T09:40:23;100307.59;;;1.50;100.00
14295;BME280;7231;59.370;18.016;2023-01-29T09:42:56;100299.09;;;1.53;100.00
14295;BME280;7231;59.370;18.016;2023-01-29T09:45:28;100295.00;;;1.56;100.00
14295;BME280;7231;59.370;18.016;2023-01-29T09:47:58;100288.22;;;1.58;100.00
14295;BME280;7231;59.370;18.016;2023-01-29T09:50:37;100291.63;;;1.57;100.00
14295;BME280;7231;59.370;18.016;2023-01-29T09:53:14;100278.59;;;1.56;100.00
14295;BME280;7231;59.370;18.016;2023-01-29T09:55:47;100268.19;;;1.54;100.00
14295;BME280;7231;59.370;18.016;2023-01-29T09:58:20;100266.84;;;1.61;100.00
14295;BME280;7231;59.370;18.016;2023-01-29T10:01:01;100263.53;;;1.63;100.00
14295;BME280;7231;59.370;18.016;2023-01-29T10:03:52;100274.19;;;1.70;100.00
14295;BME280;7231;59.370;18.016;2023-01-29T10:06:47;100272.56;;;1.72;100.00
14295;BME280;7231;59.370;18.016;2023-01-29T10:09:48;100261.44;;;1.73;100.00
14295;BME280;7231;59.370;18.016;2023-01-29T10:12:31;100249.41;;;1.73;100.00
14295;BME280;7231;59.370;18.016;2023-01-29T10:15:16;100256.75;;;1.82;100.00
14295;BME280;7231;59.370;18.016;2023-01-29T10:17:56;100244.16;;;1.88;100.00
14295;BME280;7231;59.370;18.016;2023-01-29T10:20:45;100254.56;;;1.89;100.00
14295;BME280;7231;59.370;18.016;2023-01-29T10:23:21;100146.59;;;1.35;100.00
14295;BME280;7231;59.370;18.016;2023-01-29T10:25:51;100223.22;;;1.83;100.00
14295;BME280;7231;59.370;18.016;2023-01-29T10:28:24;100225.72;;;1.98;100.00
14295;BME280;7231;59.370;18.016;2023-01-29T10:30:58;100226.28;;;2.09;100.00
14295;BME280;7231;59.370;18.016;2023-01-29T10:33:30;100225.16;;;2.20;100.00
14295;BME280;7231;59.370;18.016;2023-01-29T10:36:22;100213.50;;;2.28;100.00
14295;BME280;7231;59.370;18.016;2023-01-29T10:38:54;100199.66;;;2.27;100.00
14295;BME280;7231;59.370;18.016;2023-01-29T10:41:30;100175.53;;;2.11;100.00
14295;BME280;7231;59.370;18.016;2023-01-29T10:44:18;100199.00;;;2.32;100.00
14295;BME280;7231;59.370;18.016;2023-01-29T10:46:59;100191.19;;;2.30;100.00
14295;BME280;7231;59.370;18.016;2023-01-29T10:49:46;100166.41;;;2.17;100.00
14295;BME280;7231;59.370;18.016;2023-01-29T10:52:26;100180.91;;;2.32;100.00
14295;BME280;7231;59.370;18.016;2023-01-29T10:55:06;100170.63;;;2.33;100.00
14295;BME280;7231;59.370;18.016;2023-01-29T10:57:50;100162.94;;;2.35;100.00
14295;BME280;7231;59.370;18.016;2023-01-29T11:00:22;100142.53;;;2.23;100.00
14295;BME280;7231;59.370;18.016;2023-01-29T11:02:51;100157.41;;;2.45;100.00
14295;BME280;7231;59.370;18.016;2023-01-29T11:05:24;100155.88;;;2.48;100.00
14295;BME280;7231;59.370;18.016;2023-01-29T11:08:01;100110.19;;;2.31;100.00
14295;BME280;7231;59.370;18.016;2023-01-29T11:10:36;100104.19;;;2.32;100.00
14295;BME280;7231;59.370;18.016;2023-01-29T11:13:11;100107.97;;;2.39;100.00
14295;BME280;7231;59.370;18.016;2023-01-29T11:15:41;100116.19;;;2.48;100.00
14295;BME280;7231;59.370;18.016;2023-01-29T11:18:10;100125.59;;;2.65;100.00
14295;BME280;7231;59.370;18.016;2023-01-29T11:20:40;100111.31;;;2.73;100.00
14295;BME280;7231;59.370;18.016;2023-01-29T11:23:24;100107.25;;;2.78;100.00
14295;BME280;7231;59.370;18.016;2023-01-29T11:25:55;100098.00;;;2.83;100.00
14295;BME280;7231;59.370;18.016;2023-01-29T11:28:38;100092.00;;;2.84;100.00
14295;BME280;7231;59.370;18.016;2023-01-29T11:31:21;100082.47;;;2.83;100.00
14295;BME280;7231;59.370;18.016;2023-01-29T11:33:52;100070.53;;;2.87;100.00
14295;BME280;7231;59.370;18.016;2023-01-29T11:36:29;99992.34;;;2.55;100.00
14295;BME280;7231;59.370;18.016;2023-01-29T11:39:11;99975.28;;;2.60;100.00
14295;BME280;7231;59.370;18.016;2023-01-29T11:41:47;99987.22;;;2.76;100.00
14295;BME280;7231;59.370;18.016;2023-01-29T11:44:26;100024.44;;;3.17;100.00
14295;BME280;7231;59.370;18.016;2023-01-29T11:46:55;100035.63;;;3.16;100.00
14295;BME280;7231;59.370;18.016;2023-01-29T11:49:30;100023.47;;;3.15;100.00
14295;BME280;7231;59.370;18.016;2023-01-29T11:52:02;100008.28;;;3.22;100.00
14295;BME280;7231;59.370;18.016;2023-01-29T11:54:33;99951.94;;;2.98;100.00
14295;BME280;7231;59.370;18.016;2023-01-29T11:59:48;99980.94;;;3.29;100.00
14295;BME280;7231;59.370;18.016;2023-01-29T12:02:28;99964.50;;;3.29;100.00
14295;BME280;7231;59.370;18.016;2023-01-29T12:05:01;99963.00;;;3.34;100.00
14295;BME280;7231;59.370;18.016;2023-01-29T12:07:30;99958.91;;;3.39;100.00
14295;BME280;7231;59.370;18.016;2023-01-29T12:09:59;99949.66;;;3.45;100.00
14295;BME280;7231;59.370;18.016;2023-01-29T12:12:36;99943.28;;;3.58;100.00
14295;BME280;7231;59.370;18.016;2023-01-29T12:15:17;99924.50;;;3.64;100.00
14295;BME280;7231;59.370;18.016;2023-01-29T12:17:52;99922.41;;;3.76;100.00
14295;BME280;7231;59.370;18.016;2023-01-29T12:20:29;99928.78;;;3.84;100.00
14295;BME280;7231;59.370;18.016;2023-01-29T12:23:10;99913.81;;;3.77;99.73
14295;BME280;7231;59.370;18.016;2023-01-29T12:25:43;99918.13;;;3.76;99.49
14295;BME280;7231;59.370;18.016;2023-01-29T12:28:22;99904.09;;;3.71;99.43
14295;BME280;7231;59.370;18.016;2023-01-29T12:31:07;99894.66;;;3.73;99.08
14295;BME280;7231;59.370;18.016;2023-01-29T12:33:42;99892.00;;;3.72;98.47
14295;BME280;7231;59.370;18.016;2023-01-29T12:36:18;99887.66;;;3.71;98.13
14295;BME280;7231;59.370;18.016;2023-01-29T12:38:49;99872.09;;;3.71;98.11
14295;BME280;7231;59.370;18.016;2023-01-29T12:41:24;99865.13;;;3.70;97.78
14295;BME280;7231;59.370;18.016;2023-01-29T12:44:01;99871.31;;;3.73;98.13
14295;BME280;7231;59.370;18.016;2023-01-29T12:46:36;99839.84;;;3.64;97.74
14295;BME280;7231;59.370;18.016;2023-01-29T12:49:10;99860.13;;;3.74;97.90
14295;BME280;7231;59.370;18.016;2023-01-29T12:51:49;99828.78;;;3.68;97.74
14295;BME280;7231;59.370;18.016;2023-01-29T12:54:22;99834.28;;;3.76;97.87
14295;BME280;7231;59.370;18.016;2023-01-29T12:56:57;99770.69;;;3.41;98.01
14295;BME280;7231;59.370;18.016;2023-01-29T12:59:30;99824.50;;;3.69;97.77
14295;BME280;7231;59.370;18.016;2023-01-29T13:02:05;99824.53;;;3.70;97.70
14295;BME280;7231;59.370;18.016;2023-01-29T13:04:40;99797.16;;;3.54;97.80
14295;BME280;7231;59.370;18.016;2023-01-29T13:07:13;99821.06;;;3.70;97.69
14295;BME280;7231;59.370;18.016;2023-01-29T13:09:48;99791.72;;;3.48;97.79
14295;BME280;7231;59.370;18.016;2023-01-29T13:12:19;99820.13;;;3.68;97.55
14295;BME280;7231;59.370;18.016;2023-01-29T13:14:53;99773.28;;;3.41;97.82
14295;BME280;7231;59.370;18.016;2023-01-29T13:17:27;99784.94;;;3.52;97.59
14295;BME280;7231;59.370;18.016;2023-01-29T13:20:03;99738.53;;;3.36;97.58
14295;BME280;7231;59.370;18.016;2023-01-29T13:22:37;99788.03;;;3.64;98.22
14295;BME280;7231;59.370;18.016;2023-01-29T13:25:13;99769.47;;;3.53;98.11
14295;BME280;7231;59.370;18.016;2023-01-29T13:27:42;99762.09;;;3.64;98.46